Time;durP1;ratioP1;P1;durP2;ratioP2;P2;SDS_P1;SDS_P2;PMS_P1;PMS_P2;Temp;Humidity;BMP_temperature;BMP_pressure;BME280_temperature;BME280_humidity;BME280_pressure;Samples;Min_cycle;Max_cycle;Signal;HPM_P1;HPM_P2
2023/03/13 00:00:31;;;;;;;;;;;;;;;-2.10;84.03;93591.69;5052423;28;19964;-38
2023/03/13 00:02:56;;;;;;;;;;;;;;;-2.35;84.25;93587.53;5052493;28;20557;-38
2023/03/13 00:05:21;;;;;;;;;;;;;;;-2.22;84.19;93585.31;5052714;28;19942;-38
2023/03/13 00:07:47;;;;;;;;;;;;;;;-2.06;84.32;93587.59;5036392;28;20331;-38
2023/03/13 00:10:12;;;;;;;;;;;;;;;-2.30;83.43;93597.72;5032386;28;19952;-38
2023/03/13 00:12:37;;;;;;;;;;;;;;;-2.25;83.38;93602.47;5032377;28;19928;-38
2023/03/13 00:15:03;;;;;;;;;;;;;;;-2.26;84.04;93598.28;5032231;28;19941;-38
2023/03/13 00:17:29;;;;;;;;;;;;;;;-2.14;83.58;93593.84;5032503;28;19951;-38
2023/03/13 00:19:54;;;;;;;;;;;;;;;-2.08;82.33;93600.81;5032143;28;19932;-38
2023/03/13 00:22:19;;;;;;;;;;;;;;;-2.37;83.43;93600.78;5032115;28;19948;-38
2023/03/13 00:24:45;;;;;;;;;;;;;;;-2.54;84.28;93599.69;5032298;28;19942;-38
2023/03/13 00:27:10;;;;;;;;;;;;;;;-2.74;84.39;93605.66;5032058;28;20456;-38
2023/03/13 00:29:35;;;;;;;;;;;;;;;-2.69;84.82;93604.28;5032006;28;19934;-38
2023/03/13 00:32:01;;;;;;;;;;;;;;;-2.80;84.84;93598.66;5031991;28;19964;-38
2023/03/13 00:34:26;;;;;;;;;;;;;;;-3.01;85.73;93607.78;5047357;28;19931;-38
2023/03/13 00:36:52;;;;;;;;;;;;;;;-3.02;85.77;93606.28;5052043;28;19953;-38
2023/03/13 00:39:17;;;;;;;;;;;;;;;-2.94;85.92;93600.06;5051769;28;20537;-38
2023/03/13 00:41:43;;;;;;;;;;;;;;;-2.73;84.66;93599.03;5052072;28;19936;-38
2023/03/13 00:44:08;;;;;;;;;;;;;;;-2.77;85.56;93606.59;5051962;28;19974;-38
2023/03/13 00:46:34;;;;;;;;;;;;;;;-2.81;86.13;93603.31;5051867;28;20014;-38
2023/03/13 00:48:59;;;;;;;;;;;;;;;-2.75;85.88;93598.75;5051420;28;19973;-38
2023/03/13 00:51:25;;;;;;;;;;;;;;;-2.66;85.27;93606.06;5038090;28;19972;-38
2023/03/13 00:53:51;;;;;;;;;;;;;;;-2.41;83.73;93611.00;5031861;28;19938;-38
2023/03/13 00:56:16;;;;;;;;;;;;;;;-2.24;81.91;93620.19;5038348;28;20394;-38
2023/03/13 00:58:42;;;;;;;;;;;;;;;-2.30;81.76;93617.38;5050872;28;19991;-38
2023/03/13 01:01:18;;;;;;;;;;;;;;;-2.65;83.17;93613.72;5051335;28;19960;-38
2023/03/13 01:03:44;;;;;;;;;;;;;;;-2.93;83.78;93619.75;5051646;28;19931;-38
2023/03/13 01:06:10;;;;;;;;;;;;;;;-2.89;84.65;93628.41;5049141;28;19932;-38
2023/03/13 01:08:36;;;;;;;;;;;;;;;-2.75;83.76;93619.66;5031698;28;20325;-38
2023/03/13 01:11:03;;;;;;;;;;;;;;;-2.57;83.03;93622.97;5031489;28;19937;-38
2023/03/13 01:13:29;;;;;;;;;;;;;;;-2.68;82.44;93632.81;5031809;28;19952;-38
2023/03/13 01:15:54;;;;;;;;;;;;;;;-2.77;83.27;93619.38;5031214;28;20405;-38
2023/03/13 01:18:19;;;;;;;;;;;;;;;-2.79;82.77;93614.41;5031213;28;19943;-38
2023/03/13 01:20:45;;;;;;;;;;;;;;;-2.67;82.57;93618.09;5031363;28;20067;-38
2023/03/13 01:23:10;;;;;;;;;;;;;;;-2.91;83.08;93620.78;5031564;28;20016;-38
2023/03/13 01:25:36;;;;;;;;;;;;;;;-2.84;83.00;93609.66;5031302;28;20406;-38
2023/03/13 01:28:02;;;;;;;;;;;;;;;-2.86;83.53;93612.06;5031274;28;20464;-38
2023/03/13 01:30:27;;;;;;;;;;;;;;;-3.04;83.87;93617.53;5030918;28;19994;-38
2023/03/13 01:32:52;;;;;;;;;;;;;;;-3.14;84.52;93618.81;5033071;28;20032;-38
2023/03/13 01:35:18;;;;;;;;;;;;;;;-3.03;84.62;93621.00;5050847;28;19931;-38
2023/03/13 01:37:43;;;;;;;;;;;;;;;-3.17;84.77;93620.47;5050969;28;19956;-38
2023/03/13 01:40:09;;;;;;;;;;;;;;;-3.32;85.15;93619.63;5050682;28;19927;-38
2023/03/13 01:42:54;;;;;;;;;;;;;;;-3.45;86.15;93613.66;5050902;28;19936;-38
2023/03/13 01:45:38;;;;;;;;;;;;;;;-3.54;86.67;93611.00;5050902;28;19940;-38
2023/03/13 01:48:03;;;;;;;;;;;;;;;-3.50;86.58;93613.50;5050460;28;19932;-38
2023/03/13 01:50:28;;;;;;;;;;;;;;;-3.39;87.14;93621.88;5050335;28;19933;-38
2023/03/13 01:52:54;;;;;;;;;;;;;;;-3.30;86.71;93627.25;5050684;28;19943;-38
2023/03/13 01:55:19;;;;;;;;;;;;;;;-3.36;85.83;93632.53;5050569;28;20459;-38
2023/03/13 01:57:46;;;;;;;;;;;;;;;-3.34;85.07;93642.88;5046357;28;19997;-38
2023/03/13 02:00:17;;;;;;;;;;;;;;;-3.54;85.11;93643.38;5030313;28;20016;-38
2023/03/13 02:02:46;;;;;;;;;;;;;;;-3.36;84.93;93642.56;5030214;28;20444;-38
2023/03/13 02:05:11;;;;;;;;;;;;;;;-3.72;85.31;93654.19;5046018;28;19931;-38
2023/03/13 02:07:38;;;;;;;;;;;;;;;-3.67;86.19;93656.28;5045574;28;19938;-38
2023/03/13 02:10:03;;;;;;;;;;;;;;;-3.73;85.80;93650.00;5030456;28;19933;-38
2023/03/13 02:12:35;;;;;;;;;;;;;;;-3.89;86.27;93655.72;5030444;28;20413;-38
2023/03/13 02:15:04;;;;;;;;;;;;;;;-4.14;86.51;93629.06;5045314;28;19974;-38
2023/03/13 02:17:29;;;;;;;;;;;;;;;-3.79;86.51;93654.53;5045461;28;19952;-38
2023/03/13 02:19:54;;;;;;;;;;;;;;;-3.57;85.42;93644.25;5030283;28;19940;-38
2023/03/13 02:22:38;;;;;;;;;;;;;;;-3.33;84.98;93653.19;5030025;28;19939;-38
2023/03/13 02:25:06;;;;;;;;;;;;;;;-3.55;85.88;93649.22;5029898;28;20429;-38
2023/03/13 02:27:31;;;;;;;;;;;;;;;-3.83;86.96;93659.28;5030135;28;19929;-38
2023/03/13 02:29:56;;;;;;;;;;;;;;;-3.69;86.86;93661.38;5045262;28;20405;-38
2023/03/13 02:32:22;;;;;;;;;;;;;;;-3.65;86.60;93661.22;5044948;28;19972;-38
2023/03/13 02:34:47;;;;;;;;;;;;;;;-3.47;84.60;93653.84;5047805;28;19933;-38
2023/03/13 02:37:13;;;;;;;;;;;;;;;-3.67;85.01;93656.28;5049991;28;19951;-38
2023/03/13 02:39:39;;;;;;;;;;;;;;;-3.52;85.02;93657.16;5049759;28;19938;-38
2023/03/13 02:42:05;;;;;;;;;;;;;;;-3.50;84.64;93660.16;5065434;28;19931;-38
2023/03/13 02:44:30;;;;;;;;;;;;;;;-3.78;85.56;93669.50;5065380;28;20510;-38
2023/03/13 02:46:55;;;;;;;;;;;;;;;-3.89;85.49;93669.19;5049831;28;19956;-38
2023/03/13 02:49:25;;;;;;;;;;;;;;;-3.89;86.17;93666.50;5049769;28;20021;-38
2023/03/13 02:51:51;;;;;;;;;;;;;;;-3.89;86.19;93674.59;5032444;28;19943;-38
2023/03/13 02:54:20;;;;;;;;;;;;;;;-3.83;85.74;93678.94;5045081;28;19932;-38
2023/03/13 02:56:47;;;;;;;;;;;;;;;-4.06;86.71;93682.25;5029174;28;19955;-38
2023/03/13 02:59:13;;;;;;;;;;;;;;;-4.14;87.46;93691.84;5029499;28;19992;-38
2023/03/13 03:01:38;;;;;;;;;;;;;;;-4.31;87.49;93696.00;5029593;28;19975;-38
2023/03/13 03:04:03;;;;;;;;;;;;;;;-4.31;87.82;93704.06;5029245;28;20619;-38
2023/03/13 03:06:28;;;;;;;;;;;;;;;-4.28;87.56;93702.44;5027866;28;19936;-38
2023/03/13 03:08:54;;;;;;;;;;;;;;;-4.28;88.32;93715.91;5044859;28;19936;-38
2023/03/13 03:11:19;;;;;;;;;;;;;;;-4.00;87.78;93701.25;5029095;28;19950;-38
2023/03/13 03:13:44;;;;;;;;;;;;;;;-3.77;85.98;93695.28;5029115;28;19941;-38
2023/03/13 03:16:11;;;;;;;;;;;;;;;-3.74;85.74;93699.00;5029392;28;19933;-38
2023/03/13 03:18:36;;;;;;;;;;;;;;;-3.78;86.41;93701.84;5044722;28;20073;-38
2023/03/13 03:21:05;;;;;;;;;;;;;;;-3.89;86.28;93710.41;5028653;28;20487;-38
2023/03/13 03:23:30;;;;;;;;;;;;;;;-4.07;86.36;93698.88;5029417;28;19933;-38
2023/03/13 03:25:56;;;;;;;;;;;;;;;-4.01;87.02;93707.88;5028925;28;20429;-38
2023/03/13 03:28:21;;;;;;;;;;;;;;;-3.97;86.48;93708.47;5029297;28;19929;-38
2023/03/13 03:30:46;;;;;;;;;;;;;;;-4.07;85.91;93710.41;5028699;28;19936;-38
2023/03/13 03:33:11;;;;;;;;;;;;;;;-4.05;86.84;93705.28;5034105;28;19930;-38
2023/03/13 03:35:39;;;;;;;;;;;;;;;-3.83;86.74;93712.50;5049133;28;19937;-38
2023/03/13 03:38:04;;;;;;;;;;;;;;;-3.81;86.12;93710.13;5049029;28;20102;-38
2023/03/13 03:40:30;;;;;;;;;;;;;;;-3.86;84.99;93714.91;5049087;28;20509;-38
2023/03/13 03:42:55;;;;;;;;;;;;;;;-3.95;85.60;93722.25;5048980;28;19963;-38
2023/03/13 03:45:20;;;;;;;;;;;;;;;-4.13;85.84;93730.31;5048911;28;19940;-38
2023/03/13 03:47:45;;;;;;;;;;;;;;;-4.36;85.74;93736.28;5048523;28;19936;-38
2023/03/13 03:50:11;;;;;;;;;;;;;;;-4.59;86.25;93742.22;5045746;28;19931;-38
2023/03/13 03:52:36;;;;;;;;;;;;;;;-4.62;86.14;93739.22;5028973;28;20319;-38
2023/03/13 03:55:02;;;;;;;;;;;;;;;-4.64;86.77;93749.69;5029019;28;19942;-38
2023/03/13 03:57:27;;;;;;;;;;;;;;;-4.60;87.37;93773.78;5045658;28;20064;-38
2023/03/13 03:59:53;;;;;;;;;;;;;;;-4.67;87.21;93774.81;5048606;28;20022;-38
2023/03/13 04:02:18;;;;;;;;;;;;;;;-4.32;86.44;93763.81;5048870;28;20333;-38
2023/03/13 04:04:43;;;;;;;;;;;;;;;-4.31;85.26;93768.03;5048537;28;19989;-38
2023/03/13 04:07:08;;;;;;;;;;;;;;;-4.52;86.62;93776.94;5037891;28;19985;-39
2023/03/13 04:09:34;;;;;;;;;;;;;;;-4.74;87.44;93780.44;5028637;28;19937;-38
2023/03/13 04:11:59;;;;;;;;;;;;;;;-4.56;88.09;93779.78;5028996;28;20026;-38
2023/03/13 04:14:24;;;;;;;;;;;;;;;-4.61;87.31;93791.13;5028678;28;20371;-38
2023/03/13 04:16:50;;;;;;;;;;;;;;;-4.44;87.05;93794.34;5028849;28;19954;-39
2023/03/13 04:19:15;;;;;;;;;;;;;;;-4.25;86.67;93810.13;5028654;28;19938;-38
2023/03/13 04:21:40;;;;;;;;;;;;;;;-4.53;86.22;93799.69;5028899;28;19939;-38
2023/03/13 04:24:06;;;;;;;;;;;;;;;-4.46;86.39;93808.25;5028874;28;20380;-38
2023/03/13 04:26:31;;;;;;;;;;;;;;;-4.43;85.88;93807.38;5028687;28;20371;-38
2023/03/13 04:28:56;;;;;;;;;;;;;;;-4.74;85.85;93814.72;5028868;28;19963;-38
2023/03/13 04:31:22;;;;;;;;;;;;;;;-4.75;86.15;93816.69;5028166;28;19928;-38
2023/03/13 04:33:47;;;;;;;;;;;;;;;-4.37;85.06;93807.53;5041640;28;19966;-39
2023/03/13 04:36:12;;;;;;;;;;;;;;;-4.57;85.57;93815.25;5052144;28;19941;-39
2023/03/13 04:38:38;;;;;;;;;;;;;;;-4.61;86.42;93824.22;5051858;28;19982;-39
2023/03/13 04:41:03;;;;;;;;;;;;;;;-4.57;86.64;93824.09;5051887;28;19939;-38
2023/03/13 04:43:28;;;;;;;;;;;;;;;-4.33;85.86;93818.94;5051721;28;19938;-39
2023/03/13 04:45:53;;;;;;;;;;;;;;;-4.37;86.04;93821.75;5052067;28;19936;-39
2023/03/13 04:48:19;;;;;;;;;;;;;;;-4.23;85.20;93826.59;5051694;28;20688;-39
2023/03/13 04:50:44;;;;;;;;;;;;;;;-4.19;84.88;93831.84;5044088;28;19941;-39
2023/03/13 04:53:09;;;;;;;;;;;;;;;-4.56;85.15;93838.28;5032100;28;19934;-39
2023/03/13 04:55:35;;;;;;;;;;;;;;;-4.58;85.28;93838.75;5033368;28;20004;-39
2023/03/13 04:58:00;;;;;;;;;;;;;;;-4.54;85.67;93844.75;5051929;28;19966;-39
2023/03/13 05:00:25;;;;;;;;;;;;;;;-4.64;85.78;93843.97;5051556;28;19964;-39
2023/03/13 05:02:50;;;;;;;;;;;;;;;-4.59;85.68;93841.88;5046612;28;19959;-39
2023/03/13 05:05:16;;;;;;;;;;;;;;;-4.65;85.82;93844.38;5031604;28;19933;-39
2023/03/13 05:07:41;;;;;;;;;;;;;;;-4.72;87.05;93848.09;5031707;28;19931;-39
2023/03/13 05:10:06;;;;;;;;;;;;;;;-4.46;86.54;93842.53;5031503;28;20395;-39
2023/03/13 05:12:32;;;;;;;;;;;;;;;-4.35;85.44;93850.97;5031640;28;19934;-38
2023/03/13 05:14:57;;;;;;;;;;;;;;;-4.54;85.29;93855.53;5031535;28;20733;-39
2023/03/13 05:17:22;;;;;;;;;;;;;;;-4.67;85.66;93852.16;5031287;28;19955;-38
2023/03/13 05:19:47;;;;;;;;;;;;;;;-4.83;86.41;93861.19;5031213;28;19951;-39
2023/03/13 05:22:13;;;;;;;;;;;;;;;-4.52;86.04;93855.06;5031477;28;19978;-38
2023/03/13 05:24:38;;;;;;;;;;;;;;;-4.30;84.56;93855.75;5031115;28;19960;-39
2023/03/13 05:27:03;;;;;;;;;;;;;;;-4.28;84.36;93861.47;5031088;28;20012;-38
2023/03/13 05:29:29;;;;;;;;;;;;;;;-4.16;84.41;93855.22;5031346;28;19970;-39
2023/03/13 05:31:54;;;;;;;;;;;;;;;-4.40;85.27;93855.00;5030661;28;19931;-38
2023/03/13 05:34:19;;;;;;;;;;;;;;;-4.22;86.30;93862.41;5045417;28;19936;-38
2023/03/13 05:36:44;;;;;;;;;;;;;;;-4.07;86.03;93868.75;5050707;28;19963;-38
2023/03/13 05:39:09;;;;;;;;;;;;;;;-3.99;85.08;93872.66;5050765;28;19939;-38
2023/03/13 05:41:35;;;;;;;;;;;;;;;-3.96;84.43;93867.13;5050985;28;19929;-39
2023/03/13 05:44:00;;;;;;;;;;;;;;;-3.81;84.64;93875.38;5050362;28;19955;-38
2023/03/13 05:46:25;;;;;;;;;;;;;;;-3.81;84.21;93885.44;5050942;28;19932;-38
2023/03/13 05:48:51;;;;;;;;;;;;;;;-3.65;84.26;93882.47;5050624;28;19954;-38
2023/03/13 05:51:17;;;;;;;;;;;;;;;-3.66;84.87;93884.41;5038484;28;19934;-38
2023/03/13 05:53:42;;;;;;;;;;;;;;;-3.47;85.16;93885.97;5030864;28;19944;-38
2023/03/13 05:56:07;;;;;;;;;;;;;;;-3.45;85.16;93888.19;5036698;28;20452;-39
2023/03/13 05:58:32;;;;;;;;;;;;;;;-3.34;85.19;93885.81;5050557;28;19939;-38
2023/03/13 06:00:58;;;;;;;;;;;;;;;-3.36;86.14;93883.56;5050262;28;20435;-39
2023/03/13 06:03:23;;;;;;;;;;;;;;;-3.14;87.07;93883.44;5050562;28;19937;-39
2023/03/13 06:05:48;;;;;;;;;;;;;;;-2.95;87.07;93881.47;5050361;28;19961;-39
2023/03/13 06:08:13;;;;;;;;;;;;;;;-2.88;86.82;93883.88;5030704;28;19960;-39
2023/03/13 06:10:39;;;;;;;;;;;;;;;-2.74;86.89;93886.69;5030676;28;19935;-38
2023/03/13 06:13:04;;;;;;;;;;;;;;;-2.57;86.75;93879.00;5030411;28;19933;-38
2023/03/13 06:15:29;;;;;;;;;;;;;;;-2.03;86.33;93884.25;5030404;28;19939;-39
2023/03/13 06:17:54;;;;;;;;;;;;;;;-1.24;83.10;93893.59;5030665;28;19951;-38
2023/03/13 06:20:21;;;;;;;;;;;;;;;-0.37;80.91;93892.25;5030415;28;20610;-39
2023/03/13 06:22:46;;;;;;;;;;;;;;;1.02;74.65;93898.47;5030169;28;20491;-38
2023/03/13 06:25:11;;;;;;;;;;;;;;;2.26;69.80;93899.94;5030583;28;20028;-39
2023/03/13 06:27:36;;;;;;;;;;;;;;;3.18;65.12;93900.25;5030196;28;19929;-39
2023/03/13 06:30:02;;;;;;;;;;;;;;;4.02;61.84;93896.47;5030288;28;19964;-39
2023/03/13 06:32:27;;;;;;;;;;;;;;;4.09;60.84;93892.50;5029832;28;19931;-39
2023/03/13 06:34:53;;;;;;;;;;;;;;;5.09;56.46;93895.88;5048557;28;20344;-39
2023/03/13 06:37:18;;;;;;;;;;;;;;;6.00;54.21;93894.44;5049844;28;20036;-38
2023/03/13 06:39:43;;;;;;;;;;;;;;;6.55;52.22;93887.81;5049516;28;20427;-38
2023/03/13 06:42:08;;;;;;;;;;;;;;;6.95;49.33;93891.69;5049605;28;19934;-39
2023/03/13 06:44:34;;;;;;;;;;;;;;;8.38;47.45;93882.88;5049673;28;19938;-38
2023/03/13 06:46:59;;;;;;;;;;;;;;;8.54;46.85;93890.13;5049402;28;19980;-38
2023/03/13 06:49:24;;;;;;;;;;;;;;;9.96;44.08;93884.44;5049573;28;19941;-38
2023/03/13 06:51:50;;;;;;;;;;;;;;;11.37;40.76;93885.53;5032833;28;19944;-38
2023/03/13 06:54:15;;;;;;;;;;;;;;;12.48;38.02;93878.84;5028981;28;19931;-39
2023/03/13 06:56:40;;;;;;;;;;;;;;;13.56;34.46;93888.88;5039700;28;20044;-39
2023/03/13 06:59:05;;;;;;;;;;;;;;;14.08;34.16;93878.91;5043964;28;20398;-39
2023/03/13 07:01:31;;;;;;;;;;;;;;;12.24;34.03;93863.47;5029319;28;19932;-39
2023/03/13 07:03:56;;;;;;;;;;;;;;;12.02;35.21;93864.88;5029362;28;19931;-39
2023/03/13 07:06:22;;;;;;;;;;;;;;;12.83;34.55;93851.00;5029284;28;19952;-39
2023/03/13 07:08:47;;;;;;;;;;;;;;;13.86;32.44;93843.63;5029297;28;19938;-39
2023/03/13 07:11:13;;;;;;;;;;;;;;;15.56;29.75;93842.91;5029483;28;20446;-39
2023/03/13 07:13:38;;;;;;;;;;;;;;;15.90;27.44;93847.72;5029284;28;19932;-39
2023/03/13 07:16:05;;;;;;;;;;;;;;;16.11;29.13;93861.25;5029488;28;19935;-39
2023/03/13 07:18:30;;;;;;;;;;;;;;;16.29;28.87;93863.41;5028927;28;19955;-39
2023/03/13 07:20:57;;;;;;;;;;;;;;;17.25;27.71;93861.13;5029119;28;19943;-39
2023/03/13 07:23:22;;;;;;;;;;;;;;;18.61;25.21;93853.75;5029060;28;19979;-38
2023/03/13 07:25:54;;;;;;;;;;;;;;;18.42;23.80;93858.63;5029006;28;19983;-38
2023/03/13 07:28:20;;;;;;;;;;;;;;;17.26;24.67;93854.25;5029176;28;19935;-38
2023/03/13 07:30:45;;;;;;;;;;;;;;;17.60;24.91;93847.72;5028604;28;19935;-38
2023/03/13 07:33:10;;;;;;;;;;;;;;;17.08;27.08;93853.59;5033894;28;19984;-38
2023/03/13 07:35:35;;;;;;;;;;;;;;;19.02;25.27;93862.16;5048815;28;20466;-39
2023/03/13 07:38:01;;;;;;;;;;;;;;;18.84;25.03;93859.56;5049091;28;19962;-39
2023/03/13 07:40:26;;;;;;;;;;;;;;;18.49;24.37;93864.09;5048758;28;19938;-38
2023/03/13 07:42:51;;;;;;;;;;;;;;;19.23;24.25;93873.44;5049127;28;20018;-39
2023/03/13 07:45:16;;;;;;;;;;;;;;;18.84;23.94;93872.84;5048931;28;19931;-38
2023/03/13 07:47:42;;;;;;;;;;;;;;;18.53;25.45;93872.75;5048872;28;19939;-38
2023/03/13 07:50:07;;;;;;;;;;;;;;;19.92;23.88;93862.03;5046005;28;20536;-38
2023/03/13 07:52:33;;;;;;;;;;;;;;;20.45;22.96;93861.31;5029185;28;19934;-38
2023/03/13 07:54:58;;;;;;;;;;;;;;;20.85;23.04;93872.31;5044007;28;19957;-39
2023/03/13 07:57:23;;;;;;;;;;;;;;;20.55;22.30;93873.22;5045440;28;19972;-39
2023/03/13 07:59:48;;;;;;;;;;;;;;;21.27;21.82;93873.50;5048619;28;19990;-39
2023/03/13 08:02:15;;;;;;;;;;;;;;;20.27;21.65;93872.09;5063987;28;20575;-38
2023/03/13 08:04:41;;;;;;;;;;;;;;;20.69;22.02;93857.25;5048440;28;20405;-38
2023/03/13 08:07:09;;;;;;;;;;;;;;;20.67;21.01;93854.31;5040653;28;20026;-38
2023/03/13 08:09:34;;;;;;;;;;;;;;;18.62;24.45;93860.84;5032785;28;19933;-38
2023/03/13 08:12:00;;;;;;;;;;;;;;;19.35;23.87;93855.44;5032457;28;20224;-38
2023/03/13 08:14:25;;;;;;;;;;;;;;;19.43;23.74;93849.63;5032588;28;19945;-38
2023/03/13 08:16:50;;;;;;;;;;;;;;;21.24;22.63;93838.22;5032577;28;19968;-38
2023/03/13 08:19:15;;;;;;;;;;;;;;;19.41;24.87;93836.25;5032263;28;19997;-38
2023/03/13 08:21:41;;;;;;;;;;;;;;;20.41;22.16;93833.03;5032558;28;19932;-39
2023/03/13 08:24:06;;;;;;;;;;;;;;;20.88;21.82;93828.97;5032450;28;20521;-38
2023/03/13 08:26:32;;;;;;;;;;;;;;;22.21;19.54;93813.75;5032343;28;19971;-39
2023/03/13 08:28:58;;;;;;;;;;;;;;;23.07;20.46;93803.75;5032417;28;19913;-39
2023/03/13 08:31:28;;;;;;;;;;;;;;;23.25;20.28;93808.28;5031724;28;19913;-39
2023/03/13 08:33:53;;;;;;;;;;;;;;;22.94;19.96;93816.44;5042496;28;19966;-39
2023/03/13 08:36:19;;;;;;;;;;;;;;;23.12;18.40;93813.88;5051812;28;19958;-38
2023/03/13 08:38:45;;;;;;;;;;;;;;;22.38;19.31;93819.66;5052063;28;19940;-39
2023/03/13 08:41:11;;;;;;;;;;;;;;;21.25;19.67;93823.53;5051794;28;20381;-38
2023/03/13 08:43:36;;;;;;;;;;;;;;;20.40;20.02;93814.72;5051719;28;19926;-39
2023/03/13 08:46:02;;;;;;;;;;;;;;;22.18;19.80;93817.78;5052004;28;19977;-39
2023/03/13 08:48:27;;;;;;;;;;;;;;;20.49;19.30;93821.59;5051697;28;20331;-39
2023/03/13 08:51:00;;;;;;;;;;;;;;;21.97;19.42;93823.59;5042578;28;20377;-39
2023/03/13 08:53:25;;;;;;;;;;;;;;;22.44;18.17;93825.63;5031925;28;20506;-38
2023/03/13 08:55:53;;;;;;;;;;;;;;;21.53;18.03;93830.13;5031287;28;20030;-39
2023/03/13 08:58:18;;;;;;;;;;;;;;;20.65;20.65;93826.13;5031465;28;20506;-39
2023/03/13 09:00:44;;;;;;;;;;;;;;;19.89;19.30;93829.59;5031203;28;19974;-39
2023/03/13 09:03:09;;;;;;;;;;;;;;;19.24;19.95;93824.50;5031815;28;19962;-39
2023/03/13 09:05:36;;;;;;;;;;;;;;;20.13;19.55;93822.75;5031628;28;19942;-39
2023/03/13 09:08:01;;;;;;;;;;;;;;;19.42;20.68;93829.31;5031577;28;19959;-38
2023/03/13 09:10:26;;;;;;;;;;;;;;;19.12;19.85;93832.84;5031274;28;20322;-38
2023/03/13 09:12:52;;;;;;;;;;;;;;;19.40;19.79;93826.38;5031213;28;19984;-39
2023/03/13 09:15:17;;;;;;;;;;;;;;;19.86;19.65;93823.13;5031485;28;19937;-39
2023/03/13 09:17:42;;;;;;;;;;;;;;;20.20;19.41;93819.03;5030826;28;20551;-39
2023/03/13 09:20:08;;;;;;;;;;;;;;;19.82;19.29;93822.13;5031276;28;19930;-39
2023/03/13 09:22:33;;;;;;;;;;;;;;;20.47;18.14;93810.97;5031321;28;20009;-39
2023/03/13 09:24:58;;;;;;;;;;;;;;;17.55;20.30;93809.66;5031332;28;20472;-38
2023/03/13 09:27:24;;;;;;;;;;;;;;;17.21;23.26;93816.19;5031070;28;20028;-38
2023/03/13 09:29:49;;;;;;;;;;;;;;;18.34;23.57;93818.91;5031057;28;19948;-38
2023/03/13 09:32:15;;;;;;;;;;;;;;;18.76;24.73;93817.06;5031019;28;19932;-39
2023/03/13 09:34:40;;;;;;;;;;;;;;;18.95;21.70;93815.53;5048219;28;19996;-38
2023/03/13 09:37:07;;;;;;;;;;;;;;;18.10;22.06;93815.81;5050804;28;20043;-39
2023/03/13 09:39:32;;;;;;;;;;;;;;;17.63;22.08;93816.56;5051156;28;19932;-38
2023/03/13 09:41:58;;;;;;;;;;;;;;;17.49;23.16;93809.19;5050799;28;19941;-39
2023/03/13 09:44:23;;;;;;;;;;;;;;;18.05;20.75;93816.13;5051151;28;19975;-38
2023/03/13 09:46:51;;;;;;;;;;;;;;;18.13;20.55;93820.25;5050734;28;19937;-38
2023/03/13 09:49:22;;;;;;;;;;;;;;;19.54;19.09;93815.38;5050758;28;19934;-38
2023/03/13 09:51:48;;;;;;;;;;;;;;;18.26;20.22;93819.06;5049728;28;20512;-38
2023/03/13 09:54:21;;;;;;;;;;;;;;;18.05;21.61;93816.88;5030763;28;20401;-38
2023/03/13 09:56:49;;;;;;;;;;;;;;;19.38;20.77;93820.63;5057419;28;19946;-38
2023/03/13 09:59:17;;;;;;;;;;;;;;;19.33;19.42;93818.88;5066032;28;19964;-38
2023/03/13 10:01:43;;;;;;;;;;;;;;;20.56;20.57;93820.63;5050704;28;19933;-38
2023/03/13 10:04:08;;;;;;;;;;;;;;;19.89;21.73;93812.78;5065902;28;19932;-39
2023/03/13 10:06:34;;;;;;;;;;;;;;;19.76;21.35;93814.06;5044752;28;19928;-39
2023/03/13 10:09:00;;;;;;;;;;;;;;;20.83;19.75;93812.50;5045825;28;19990;-39
2023/03/13 10:11:31;;;;;;;;;;;;;;;20.51;20.58;93813.31;5030695;28;19937;-39
2023/03/13 10:13:59;;;;;;;;;;;;;;;19.72;19.05;93813.78;5030433;28;20072;-39
2023/03/13 10:16:36;;;;;;;;;;;;;;;20.19;19.28;93795.84;5030561;28;19932;-39
2023/03/13 10:19:08;;;;;;;;;;;;;;;20.49;19.43;93794.25;5045694;28;20424;-39
2023/03/13 10:21:33;;;;;;;;;;;;;;;16.52;21.86;93794.19;5045873;28;19934;-38
2023/03/13 10:24:04;;;;;;;;;;;;;;;16.12;23.60;93785.44;5030488;28;20300;-38
2023/03/13 10:26:33;;;;;;;;;;;;;;;16.23;25.90;93784.19;5030115;28;19933;-38
2023/03/13 10:29:28;;;;;;;;;;;;;;;18.27;22.38;93780.66;5044846;28;19933;-38
2023/03/13 10:31:57;;;;;;;;;;;;;;;20.18;20.98;93771.94;5028817;28;19988;-38
2023/03/13 10:34:22;;;;;;;;;;;;;;;19.31;19.33;93764.81;5044631;28;19930;-38
2023/03/13 10:36:48;;;;;;;;;;;;;;;19.54;19.76;93765.69;5049404;28;20035;-38
2023/03/13 10:39:14;;;;;;;;;;;;;;;18.30;21.01;93757.13;5049723;28;20035;-38
2023/03/13 10:41:40;;;;;;;;;;;;;;;20.00;21.96;93758.84;5049873;28;19982;-38
2023/03/13 10:44:07;;;;;;;;;;;;;;;19.55;19.54;93741.25;5049578;28;19978;-38
2023/03/13 10:46:33;;;;;;;;;;;;;;;19.49;18.46;93760.44;5049812;28;19932;-38
2023/03/13 10:49:03;;;;;;;;;;;;;;;20.68;18.45;93751.25;5035042;28;19940;-38
2023/03/13 10:51:36;;;;;;;;;;;;;;;21.32;20.02;93741.13;5029342;28;19933;-38
2023/03/13 10:54:04;;;;;;;;;;;;;;;20.37;20.82;93746.56;5029834;28;19940;-39
2023/03/13 10:56:30;;;;;;;;;;;;;;;20.71;17.39;93738.78;5053931;28;19936;-39
2023/03/13 10:58:55;;;;;;;;;;;;;;;20.23;17.62;93734.44;5029615;28;20040;-39
2023/03/13 11:01:32;;;;;;;;;;;;;;;20.41;18.40;93732.06;5044948;28;19940;-39
2023/03/13 11:04:01;;;;;;;;;;;;;;;19.27;21.22;93737.28;5044671;28;19971;-39
2023/03/13 11:06:26;;;;;;;;;;;;;;;20.08;21.07;93736.94;5029543;28;19936;-38
2023/03/13 11:09:04;;;;;;;;;;;;;;;20.60;19.51;93726.22;5029529;28;20452;-39
2023/03/13 11:11:30;;;;;;;;;;;;;;;20.23;19.15;93714.09;5044488;28;19939;-39
2023/03/13 11:14:15;;;;;;;;;;;;;;;19.54;19.00;93712.50;5029564;28;20627;-39
2023/03/13 11:16:50;;;;;;;;;;;;;;;20.36;19.54;93711.44;5028665;28;19995;-38
2023/03/13 11:19:18;;;;;;;;;;;;;;;19.57;19.45;93716.91;5029263;28;19935;-38
2023/03/13 11:21:46;;;;;;;;;;;;;;;19.69;19.37;93708.53;5029366;28;20029;-38
2023/03/13 11:24:21;;;;;;;;;;;;;;;17.22;20.04;93692.06;5029466;28;19992;-38
2023/03/13 11:26:56;;;;;;;;;;;;;;;18.38;20.35;93698.97;5029127;28;20419;-38
2023/03/13 11:29:36;;;;;;;;;;;;;;;18.19;18.94;93697.72;5044472;28;19943;-38
2023/03/13 11:32:03;;;;;;;;;;;;;;;17.82;18.81;93692.97;5028930;28;19988;-38
2023/03/13 11:34:44;;;;;;;;;;;;;;;17.92;18.87;93693.66;5044230;28;19996;-38
2023/03/13 11:37:14;;;;;;;;;;;;;;;18.06;20.71;93700.25;5049016;28;20479;-38
2023/03/13 11:39:49;;;;;;;;;;;;;;;18.25;22.23;93689.03;5049119;28;19965;-38
2023/03/13 11:42:40;;;;;;;;;;;;;;;18.25;22.31;93686.22;5051796;28;19940;-38
2023/03/13 11:45:32;;;;;;;;;;;;;;;17.88;19.31;93685.00;5039234;28;20002;-38
2023/03/13 11:48:12;;;;;;;;;;;;;;;17.26;20.13;93681.94;5023929;28;20040;-38
2023/03/13 11:50:40;;;;;;;;;;;;;;;16.26;19.61;93677.16;5032915;28;19971;-38
2023/03/13 11:53:08;;;;;;;;;;;;;;;16.78;20.29;93669.28;5033076;28;20170;-38
2023/03/13 11:55:39;;;;;;;;;;;;;;;16.73;19.95;93673.06;5032949;28;20308;-38
2023/03/13 11:58:05;;;;;;;;;;;;;;;16.62;21.78;93666.75;5048247;28;19951;-38
2023/03/13 12:00:32;;;;;;;;;;;;;;;16.79;21.43;93657.53;5032404;28;20072;-38
2023/03/13 12:03:04;;;;;;;;;;;;;;;17.40;24.02;93655.06;5032671;28;19937;-38
2023/03/13 12:05:29;;;;;;;;;;;;;;;17.81;19.61;93646.78;5032792;28;19933;-38
2023/03/13 12:08:02;;;;;;;;;;;;;;;16.76;23.39;93638.47;5032308;28;20354;-38
2023/03/13 12:10:29;;;;;;;;;;;;;;;17.29;22.40;93649.34;5047752;28;20415;-38
2023/03/13 12:13:02;;;;;;;;;;;;;;;17.15;21.07;93640.66;5032224;28;19933;-38
2023/03/13 12:15:47;;;;;;;;;;;;;;;16.85;21.19;93632.16;5047937;28;20004;-38
2023/03/13 12:18:21;;;;;;;;;;;;;;;16.00;21.34;93628.53;5047540;28;20471;-38
2023/03/13 12:20:52;;;;;;;;;;;;;;;16.26;22.11;93627.75;5032338;28;20654;-38
2023/03/13 12:23:17;;;;;;;;;;;;;;;16.34;22.95;93641.56;5047580;28;19944;-38
2023/03/13 12:26:12;;;;;;;;;;;;;;;16.31;23.77;93626.72;5032020;28;20371;-38
2023/03/13 12:28:40;;;;;;;;;;;;;;;16.29;21.98;93634.94;5015562;28;19946;-38
2023/03/13 12:31:05;;;;;;;;;;;;;;;16.36;21.24;93639.66;5015171;28;20447;-38
2023/03/13 12:33:31;;;;;;;;;;;;;;;15.54;23.88;93633.28;5039498;28;19969;-38
2023/03/13 12:36:00;;;;;;;;;;;;;;;15.38;22.79;93640.31;5052108;28;19934;-38
2023/03/13 12:38:46;;;;;;;;;;;;;;;15.20;22.64;93628.50;5051670;28;19952;-38
2023/03/13 12:41:27;;;;;;;;;;;;;;;15.36;24.75;93623.47;5039660;28;19940;-38
2023/03/13 12:43:54;;;;;;;;;;;;;;;15.81;22.00;93620.06;5047529;28;20391;-38
2023/03/13 12:46:36;;;;;;;;;;;;;;;15.85;23.86;93626.69;5032035;28;20462;-38